Time;durP1;ratioP1;P1;durP2;ratioP2;P2;SDS_P1;SDS_P2;PMS_P1;PMS_P2;Temp;Humidity;BMP_temperature;BMP_pressure;BME280_temperature;BME280_humidity;BME280_pressure;Samples;Min_cycle;Max_cycle;Signal;HPM_P1;HPM_P2
2021/10/24 00:00:54;;;;;;;3.85;2.80;;;;;;;6.55;64.54;99050.25;5114044;28;20023;-55
2021/10/24 00:03:19;;;;;;;4.35;3.30;;;;;;;6.46;64.51;99036.69;5113336;28;20119;-55
2021/10/24 00:05:45;;;;;;;4.38;3.38;;;;;;;6.55;64.57;99045.78;5095179;28;20024;-57
2021/10/24 00:08:10;;;;;;;5.18;3.75;;;;;;;6.59;64.47;99044.56;5113549;28;20054;-58
2021/10/24 00:10:36;;;;;;;5.38;3.40;;;;;;;6.61;64.28;99034.66;5112442;28;20054;-58
2021/10/24 00:13:02;;;;;;;4.68;2.97;;;;;;;6.65;64.23;99040.59;5112740;28;20055;-56
2021/10/24 00:15:28;;;;;;;4.32;3.17;;;;;;;6.71;64.20;99039.28;5113521;28;20039;-57
2021/10/24 00:17:53;;;;;;;5.38;3.25;;;;;;;6.72;64.14;99041.81;5113049;28;20118;-57
2021/10/24 00:20:19;;;;;;;4.47;3.42;;;;;;;6.68;63.96;99035.03;5095187;28;20383;-56
2021/10/24 00:22:45;;;;;;;7.30;3.40;;;;;;;6.72;64.40;99044.47;5114041;28;20042;-57
2021/10/24 00:25:10;;;;;;;4.10;3.17;;;;;;;6.74;64.81;99050.50;5095550;28;20340;-54
2021/10/24 00:27:36;;;;;;;5.32;3.47;;;;;;;6.73;65.05;99040.84;5113596;28;20430;-55
2021/10/24 00:30:03;;;;;;;6.30;3.08;;;;;;;6.80;64.70;99049.19;5113709;28;20100;-60
2021/10/24 00:32:29;;;;;;;3.33;2.70;;;;;;;6.75;64.67;99048.72;5112812;28;20059;-57
2021/10/24 00:34:54;;;;;;;5.38;2.78;;;;;;;6.75;65.05;99051.38;5113234;28;20066;-57
2021/10/24 00:37:20;;;;;;;4.25;2.22;;;;;;;6.75;64.97;99049.59;5113862;28;20114;-54
2021/10/24 00:39:46;;;;;;;3.95;2.70;;;;;;;6.74;64.61;99050.50;5113510;28;20483;-54
2021/10/24 00:42:11;;;;;;;2.97;2.55;;;;;;;6.75;64.70;99062.88;5127384;27;20096;-55
2021/10/24 00:44:37;;;;;;;4.05;2.60;;;;;;;6.75;65.29;99062.03;5115128;27;20039;-58
2021/10/24 00:47:05;;;;;;;7.32;3.00;;;;;;;6.80;65.20;99056.34;5133933;27;20026;-56
2021/10/24 00:49:31;;;;;;;3.33;2.33;;;;;;;6.71;65.07;99049.94;5133025;27;20409;-59
2021/10/24 00:51:57;;;;;;;3.67;2.67;;;;;;;6.69;65.05;99050.03;5131986;27;20035;-58
2021/10/24 00:54:25;;;;;;;4.40;2.85;;;;;;;6.73;64.77;99053.31;5114756;27;20090;-59
2021/10/24 00:56:53;;;;;;;3.30;2.17;;;;;;;6.62;65.45;99062.13;5133915;27;20443;-56
2021/10/24 00:59:21;;;;;;;5.22;2.65;;;;;;;6.60;65.74;99075.53;5133135;27;20038;-57
2021/10/24 01:01:46;;;;;;;4.55;2.92;;;;;;;6.58;65.90;99061.50;5114372;27;20039;-56
2021/10/24 01:04:12;;;;;;;3.22;2.22;;;;;;;6.63;65.49;99066.47;5133265;27;20028;-55
2021/10/24 01:06:40;;;;;;;6.15;2.15;;;;;;;6.60;65.49;99061.38;5114746;27;20023;-58
2021/10/24 01:09:12;;;;;;;4.97;1.77;;;;;;;6.63;65.57;99073.59;5131720;27;20411;-56
2021/10/24 01:11:38;;;;;;;2.58;2.10;;;;;;;6.59;65.64;99073.81;5114160;27;20163;-56
2021/10/24 01:14:04;;;;;;;4.22;2.30;;;;;;;6.59;65.50;99071.16;5133774;27;20027;-55
2021/10/24 01:16:33;;;;;;;4.13;2.00;;;;;;;6.62;65.57;99072.75;5133821;27;20031;-57
2021/10/24 01:19:02;;;;;;;4.60;1.85;;;;;;;6.61;65.80;99071.06;5132096;27;20067;-56
2021/10/24 01:21:27;;;;;;;7.75;2.25;;;;;;;6.59;66.16;99080.97;5132199;27;20077;-54
2021/10/24 01:23:53;;;;;;;3.78;2.35;;;;;;;6.62;65.64;99075.41;5132651;27;20153;-56
2021/10/24 01:26:19;;;;;;;4.18;2.35;;;;;;;6.64;66.05;99078.81;5132268;27;20023;-57
2021/10/24 01:28:45;;;;;;;3.80;2.00;;;;;;;6.53;65.96;99052.19;5133259;27;20023;-59
2021/10/24 01:31:11;;;;;;;2.67;2.13;;;;;;;6.65;66.25;99079.66;5133209;27;20114;-56
2021/10/24 01:33:36;;;;;;;2.53;1.85;;;;;;;6.60;66.25;99072.03;5132841;27;20054;-57
2021/10/24 01:36:08;;;;;;;3.03;2.03;;;;;;;6.69;65.84;99073.97;5133484;27;20406;-55
2021/10/24 01:38:35;;;;;;;2.80;1.90;;;;;;;6.63;66.05;99076.25;5131692;27;20478;-59
2021/10/24 01:41:03;;;;;;;3.33;2.08;;;;;;;6.65;66.06;99085.00;5132611;27;20114;-55
2021/10/24 01:43:29;;;;;;;3.25;1.60;;;;;;;6.66;66.05;99082.19;5132964;27;20061;-57
2021/10/24 01:45:55;;;;;;;3.85;1.85;;;;;;;6.61;66.36;99074.56;5132635;27;20104;-58
2021/10/24 01:48:22;;;;;;;3.20;1.60;;;;;;;6.70;66.13;99086.31;5132384;27;20196;-58
2021/10/24 01:50:50;;;;;;;4.22;1.75;;;;;;;6.70;65.49;99086.31;5132210;27;20121;-55
2021/10/24 01:53:17;;;;;;;3.35;1.75;;;;;;;6.69;65.79;99089.94;5131723;27;20471;-56
2021/10/24 01:55:43;;;;;;;3.05;1.52;;;;;;;6.70;65.71;99081.00;5132016;27;20073;-54
2021/10/24 01:58:08;;;;;;;2.45;1.25;;;;;;;6.74;65.70;99078.94;5132325;27;20059;-55
2021/10/24 02:00:34;;;;;;;2.15;1.48;;;;;;;6.68;65.55;99077.59;5132056;27;20066;-54
2021/10/24 02:03:00;;;;;;;1.50;1.25;;;;;;;6.79;65.60;99092.75;5131816;27;20458;-57
2021/10/24 02:05:25;;;;;;;2.45;1.55;;;;;;;6.81;65.44;99095.31;5130275;27;20537;-57
2021/10/24 02:07:51;;;;;;;3.28;1.20;;;;;;;6.79;65.16;99089.25;5131043;27;20039;-53
2021/10/24 02:10:17;;;;;;;1.60;1.05;;;;;;;6.82;65.36;99102.31;5131874;27;20436;-51
2021/10/24 02:12:43;;;;;;;1.23;0.82;;;;;;;6.81;65.22;99088.16;5131995;27;20134;-55
2021/10/24 02:15:10;;;;;;;2.35;1.13;;;;;;;6.71;65.10;99077.38;5131755;27;20074;-56
2021/10/24 02:17:36;;;;;;;2.22;1.10;;;;;;;6.83;65.32;99096.84;5132416;27;20023;-54
2021/10/24 02:20:04;;;;;;;3.25;0.90;;;;;;;6.80;65.21;99097.09;5132188;27;20027;-56
2021/10/24 02:22:29;;;;;;;1.13;0.95;;;;;;;6.80;65.54;99094.44;5131884;27;20023;-52
2021/10/24 02:24:55;;;;;;;2.13;1.10;;;;;;;6.85;65.51;99099.41;5132181;27;20122;-51
2021/10/24 02:27:20;;;;;;;1.73;0.90;;;;;;;6.82;66.05;99099.66;5131626;27;20087;-51
2021/10/24 02:29:46;;;;;;;1.98;0.93;;;;;;;6.80;66.54;99101.59;5131744;27;20056;-57
2021/10/24 02:32:12;;;;;;;1.73;0.93;;;;;;;6.82;66.84;99104.97;5131767;27;20117;-57
2021/10/24 02:34:38;;;;;;;1.20;0.93;;;;;;;6.57;67.09;99073.09;5131916;27;20035;-55
2021/10/24 02:37:03;;;;;;;1.63;1.00;;;;;;;6.81;67.28;99111.25;5131488;27;20031;-55
2021/10/24 02:39:29;;;;;;;1.60;1.05;;;;;;;6.79;67.38;99113.19;5131683;27;20416;-56
2021/10/24 02:41:54;;;;;;;2.42;0.90;;;;;;;6.72;67.20;99110.97;5132098;27;20528;-58
2021/10/24 02:44:20;;;;;;;1.80;0.98;;;;;;;6.58;67.49;99095.25;5131980;28;20034;-54
2021/10/24 02:46:46;;;;;;;1.17;1.05;;;;;;;6.66;67.87;99116.78;5131875;28;20464;-56
2021/10/24 02:49:12;;;;;;;2.00;1.00;;;;;;;6.66;67.82;99116.78;5132186;28;20092;-56
2021/10/24 02:51:37;;;;;;;0.85;0.73;;;;;;;6.65;68.05;99119.56;5132220;28;20141;-56
2021/10/24 02:54:03;;;;;;;1.77;0.85;;;;;;;6.62;67.95;99112.66;5131078;28;20113;-56
2021/10/24 02:56:28;;;;;;;0.82;0.73;;;;;;;6.62;68.06;99112.66;5110524;28;20031;-57
2021/10/24 02:58:54;;;;;;;1.02;0.82;;;;;;;6.61;67.86;99105.63;5111259;28;20154;-57
2021/10/24 03:01:19;;;;;;;1.00;0.80;;;;;;;6.63;68.04;99111.69;5111787;28;20081;-58
2021/10/24 03:03:45;;;;;;;1.02;0.73;;;;;;;6.59;67.82;99108.41;5111081;28;20535;-58
2021/10/24 03:06:10;;;;;;;0.60;0.60;;;;;;;6.53;68.16;99100.91;5110791;28;20031;-57
2021/10/24 03:08:36;;;;;;;2.15;0.90;;;;;;;6.57;68.43;99109.50;5111009;28;20382;-55
2021/10/24 03:11:01;;;;;;;1.50;0.80;;;;;;;6.57;68.39;99112.16;5111106;28;20139;-57
2021/10/24 03:13:27;;;;;;;1.30;0.95;;;;;;;6.57;68.48;99117.47;5110578;28;20514;-57
2021/10/24 03:15:53;;;;;;;2.30;1.08;;;;;;;6.55;68.17;99114.94;5110701;28;20023;-54
2021/10/24 03:18:19;;;;;;;1.58;0.80;;;;;;;6.47;68.70;99117.31;5113657;28;20078;-57
2021/10/24 03:20:45;;;;;;;2.97;0.68;;;;;;;6.49;68.22;99125.16;5115248;28;20368;-57
2021/10/24 03:23:12;;;;;;;0.50;0.50;;;;;;;6.41;68.28;99107.16;5114972;28;20058;-55
2021/10/24 03:25:37;;;;;;;0.75;0.55;;;;;;;6.45;68.35;99129.88;5114676;28;20034;-58
2021/10/24 03:28:03;;;;;;;0.40;0.40;;;;;;;6.42;68.35;99136.28;5114517;28;20118;-57
2021/10/24 03:30:29;;;;;;;1.30;0.60;;;;;;;6.37;68.50;99125.13;5096715;28;20035;-58
2021/10/24 03:32:54;;;;;;;0.95;0.43;;;;;;;6.38;69.09;99124.16;5114524;28;20030;-56
2021/10/24 03:35:20;;;;;;;2.55;0.50;;;;;;;6.37;68.93;99126.94;5114317;28;20031;-57
2021/10/24 03:37:45;;;;;;;0.82;0.43;;;;;;;6.38;69.31;99131.28;5114686;28;20031;-54
2021/10/24 03:40:11;;;;;;;0.90;0.70;;;;;;;6.36;69.29;99131.41;5115209;28;20035;-55
2021/10/24 03:42:37;;;;;;;0.50;0.50;;;;;;;6.39;69.28;99140.97;5096040;28;20076;-59
2021/10/24 03:45:04;;;;;;;0.80;0.47;;;;;;;6.33;68.67;99134.31;5114304;28;20468;-57
2021/10/24 03:47:30;;;;;;;1.88;0.50;;;;;;;6.31;69.59;99133.56;5114195;28;20433;-57
2021/10/24 03:49:55;;;;;;;1.17;0.50;;;;;;;6.32;69.71;99140.59;5114209;28;20028;-55
2021/10/24 03:52:20;;;;;;;2.60;0.60;;;;;;;6.27;69.80;99132.09;5114332;28;20039;-57
2021/10/24 03:54:46;;;;;;;0.90;0.55;;;;;;;6.29;69.77;99140.81;5113867;28;20032;-60
2021/10/24 03:57:11;;;;;;;0.50;0.50;;;;;;;6.26;70.40;99135.69;5095666;28;20095;-55
2021/10/24 03:59:37;;;;;;;2.10;0.60;;;;;;;6.23;70.51;99138.59;5113951;28;20027;-60
2021/10/24 04:02:02;;;;;;;0.35;0.32;;;;;;;6.24;70.28;99148.25;5113824;28;20035;-56
2021/10/24 04:04:28;;;;;;;1.40;0.40;;;;;;;6.03;70.41;99120.50;5114144;28;20104;-58
2021/10/24 04:06:54;;;;;;;0.70;0.70;;;;;;;6.23;70.29;99149.22;5114327;28;20030;-57
2021/10/24 04:09:19;;;;;;;1.08;0.57;;;;;;;6.24;69.86;99158.91;5113476;28;20051;-58
2021/10/24 04:11:45;;;;;;;0.93;0.45;;;;;;;6.22;70.50;99156.38;5114188;28;20475;-55
2021/10/24 04:14:10;;;;;;;1.13;0.40;;;;;;;6.23;69.56;99158.06;5114032;28;20042;-58
2021/10/24 04:16:36;;;;;;;0.40;0.40;;;;;;;6.19;69.86;99156.59;5113324;28;20046;-54
2021/10/24 04:19:01;;;;;;;1.17;0.32;;;;;;;6.18;69.07;99160.22;5113610;28;20032;-55
2021/10/24 04:21:27;;;;;;;1.50;0.50;;;;;;;6.01;70.16;99148.13;5113577;28;20061;-57
2021/10/24 04:23:53;;;;;;;0.40;0.30;;;;;;;6.00;69.92;99157.91;5113630;28;20051;-58
2021/10/24 04:26:19;;;;;;;0.55;0.32;;;;;;;6.06;70.07;99172.59;5113478;28;20108;-59
2021/10/24 04:28:44;;;;;;;0.63;0.30;;;;;;;6.01;70.26;99164.94;5112709;28;20407;-57
2021/10/24 04:31:10;;;;;;;1.10;0.30;;;;;;;6.06;69.88;99191.19;5113293;28;20460;-59
2021/10/24 04:33:36;;;;;;;0.22;0.20;;;;;;;6.03;70.03;99173.66;5112924;28;20458;-56
2021/10/24 04:36:01;;;;;;;1.02;0.40;;;;;;;6.05;70.02;99181.53;5095250;28;20149;-59
2021/10/24 04:38:29;;;;;;;1.45;0.20;;;;;;;5.97;69.95;99167.88;5113699;28;20042;-58
2021/10/24 04:40:55;;;;;;;0.40;0.30;;;;;;;5.96;70.19;99174.16;5113830;28;20072;-59
2021/10/24 04:43:20;;;;;;;2.10;0.40;;;;;;;6.03;69.72;99188.75;5113225;28;20023;-59
2021/10/24 04:45:46;;;;;;;1.17;0.38;;;;;;;6.06;69.11;99192.97;5113932;28;20044;-58
2021/10/24 04:48:11;;;;;;;0.82;0.30;;;;;;;5.98;69.61;99201.47;5113503;28;20043;-57
2021/10/24 04:50:37;;;;;;;1.50;0.28;;;;;;;5.92;69.90;99201.91;5112967;28;20024;-58
2021/10/24 04:53:08;;;;;;;1.15;0.25;;;;;;;6.00;69.68;99220.81;5112634;28;20036;-58
2021/10/24 04:55:35;;;;;;;1.25;0.30;;;;;;;5.97;69.48;99210.41;5113580;28;20036;-58
2021/10/24 04:58:00;;;;;;;0.50;0.20;;;;;;;5.79;68.96;99186.00;5113034;28;20028;-60
2021/10/24 05:00:27;;;;;;;1.02;0.30;;;;;;;5.83;69.06;99192.78;5113170;28;20383;-57
2021/10/24 05:02:52;;;;;;;0.20;0.20;;;;;;;5.95;69.45;99230.91;5112910;28;20106;-58
2021/10/24 05:05:17;;;;;;;1.27;0.40;;;;;;;5.42;69.15;99146.97;5113356;28;20032;-55
2021/10/24 05:07:43;;;;;;;1.58;0.40;;;;;;;5.89;69.22;99241.03;5113136;28;20063;-56
2021/10/24 05:10:10;;;;;;;1.30;0.30;;;;;;;5.82;69.78;99238.91;5112285;28;20047;-54
2021/10/24 05:12:37;;;;;;;0.90;0.20;;;;;;;5.80;70.32;99249.66;5112471;28;20127;-58
2021/10/24 05:15:04;;;;;;;1.60;0.30;;;;;;;5.85;69.98;99254.63;5113329;28;20039;-57
2021/10/24 05:17:30;;;;;;;0.30;0.30;;;;;;;5.84;69.78;99251.16;5112693;28;20028;-57
2021/10/24 05:19:55;;;;;;;0.40;0.30;;;;;;;5.85;69.97;99251.97;5112668;28;20035;-52
2021/10/24 05:22:21;;;;;;;0.35;0.30;;;;;;;5.64;69.55;99214.50;5112237;28;20043;-55
2021/10/24 05:24:47;;;;;;;0.95;0.30;;;;;;;5.87;69.31;99258.91;5113055;28;20139;-56
2021/10/24 05:27:12;;;;;;;1.23;0.47;;;;;;;5.75;69.54;99233.19;5113216;28;20031;-55
2021/10/24 05:29:38;;;;;;;0.70;0.43;;;;;;;5.92;69.33;99265.69;5112110;28;20031;-55
2021/10/24 05:32:03;;;;;;;2.58;0.55;;;;;;;5.94;68.99;99269.09;5112191;28;20033;-55
2021/10/24 05:34:29;;;;;;;0.40;0.35;;;;;;;5.92;68.79;99263.91;5112745;28;20027;-58
2021/10/24 05:36:54;;;;;;;1.92;0.40;;;;;;;5.95;68.21;99270.78;5112792;28;20024;-55
2021/10/24 05:39:20;;;;;;;1.67;0.50;;;;;;;5.90;69.05;99273.75;5111893;28;20090;-56
2021/10/24 05:41:46;;;;;;;0.98;0.50;;;;;;;5.88;68.58;99265.91;5112126;28;20078;-56
2021/10/24 05:44:14;;;;;;;2.83;0.40;;;;;;;5.89;68.55;99272.91;5111992;28;20035;-56
2021/10/24 05:46:40;;;;;;;1.23;0.35;;;;;;;5.95;68.50;99279.63;5111861;28;20038;-56
2021/10/24 05:49:07;;;;;;;4.30;0.50;;;;;;;5.97;67.69;99274.19;5111836;28;20028;-59
2021/10/24 05:51:33;;;;;;;3.00;0.38;;;;;;;6.08;67.65;99297.38;5111807;28;20032;-57
2021/10/24 05:53:58;;;;;;;1.85;0.40;;;;;;;6.18;67.92;99293.13;5093782;28;20368;-58
2021/10/24 05:56:24;;;;;;;0.45;0.28;;;;;;;6.18;66.91;99299.28;5111623;28;20080;-57
2021/10/24 05:58:49;;;;;;;1.58;0.30;;;;;;;6.23;66.69;99292.78;5111645;28;20028;-58
2021/10/24 06:01:15;;;;;;;3.15;0.40;;;;;;;6.37;66.27;99297.97;5111845;28;20039;-55
2021/10/24 06:03:40;;;;;;;3.03;0.30;;;;;;;6.33;65.77;99293.84;5111520;28;20028;-57
2021/10/24 06:06:06;;;;;;;1.08;0.30;;;;;;;6.47;65.74;99304.31;5111561;28;20464;-55
2021/10/24 06:08:32;;;;;;;0.35;0.30;;;;;;;6.59;65.32;99323.03;5093945;28;20034;-56
2021/10/24 06:11:13;;;;;;;3.50;0.47;;;;;;;6.55;65.11;99321.53;5111820;28;20047;-58
2021/10/24 06:13:42;;;;;;;1.45;0.30;;;;;;;6.53;65.20;99320.81;5111034;28;20482;-55
2021/10/24 06:16:07;;;;;;;0.85;0.28;;;;;;;6.51;65.12;99325.38;5111758;28;20110;-55
2021/10/24 06:18:33;;;;;;;0.40;0.40;;;;;;;6.53;64.77;99326.97;5111173;28;20111;-55
2021/10/24 06:20:58;;;;;;;2.22;0.40;;;;;;;6.48;64.83;99321.13;5109373;28;20039;-57
2021/10/24 06:23:24;;;;;;;0.30;0.30;;;;;;;6.53;64.76;99334.94;5087376;28;20073;-57
2021/10/24 06:25:49;;;;;;;0.55;0.30;;;;;;;6.46;64.91;99331.88;5091231;28;20031;-56
2021/10/24 06:28:15;;;;;;;1.77;0.30;;;;;;;6.44;65.49;99336.44;5090863;28;20032;-55
2021/10/24 06:30:42;;;;;;;0.35;0.30;;;;;;;6.38;65.44;99320.94;5090986;28;20040;-58
2021/10/24 06:33:07;;;;;;;0.60;0.30;;;;;;;6.52;65.00;99340.38;5073194;28;20399;-55
2021/10/24 06:35:34;;;;;;;0.35;0.30;;;;;;;6.57;64.57;99336.41;5090989;28;20025;-58
2021/10/24 06:37:59;;;;;;;1.00;0.45;;;;;;;6.59;64.37;99336.31;5073235;28;20042;-57
2021/10/24 06:40:25;;;;;;;0.45;0.35;;;;;;;6.60;64.22;99335.34;5073326;28;20032;-56
2021/10/24 06:42:50;;;;;;;2.90;0.55;;;;;;;6.56;64.52;99324.06;5091154;28;20032;-62
2021/10/24 06:45:16;;;;;;;3.25;0.43;;;;;;;6.70;64.09;99346.19;5090800;28;20059;-63
2021/10/24 06:47:41;;;;;;;2.15;0.65;;;;;;;6.70;64.11;99352.34;5090615;28;20028;-58
2021/10/24 06:50:09;;;;;;;0.63;0.40;;;;;;;6.67;65.40;99351.72;5091589;28;20050;-59
2021/10/24 06:52:35;;;;;;;0.50;0.47;;;;;;;6.73;65.16;99352.13;5093680;28;20031;-57
2021/10/24 06:55:01;;;;;;;4.93;0.50;;;;;;;6.75;64.51;99357.34;5098719;28;20046;-63
2021/10/24 06:57:26;;;;;;;3.17;0.40;;;;;;;6.76;64.13;99353.72;5093187;28;20027;-60
2021/10/24 06:59:52;;;;;;;2.40;0.40;;;;;;;6.79;63.93;99350.00;5097108;28;20038;-61
2021/10/24 07:02:18;;;;;;;4.22;0.40;;;;;;;6.85;64.11;99365.50;5114344;28;20511;-61
2021/10/24 07:04:43;;;;;;;0.60;0.40;;;;;;;6.88;63.71;99365.28;5112838;28;20031;-60
2021/10/24 07:07:09;;;;;;;1.50;0.50;;;;;;;6.88;63.84;99351.97;5114215;28;20111;-54
2021/10/24 07:09:34;;;;;;;1.58;0.40;;;;;;;6.93;63.50;99360.47;5089907;28;20071;-58
2021/10/24 07:12:00;;;;;;;1.10;0.57;;;;;;;6.99;63.61;99369.81;5077038;28;20039;-59
2021/10/24 07:14:26;;;;;;;1.30;0.63;;;;;;;7.06;62.97;99364.91;5094428;28;20055;-58
2021/10/24 07:16:51;;;;;;;2.63;0.32;;;;;;;6.85;62.75;99326.44;5094203;28;20504;-58
2021/10/24 07:19:17;;;;;;;0.40;0.40;;;;;;;6.96;62.46;99376.22;5107363;28;20155;-63
2021/10/24 07:21:42;;;;;;;1.33;0.60;;;;;;;6.86;63.58;99372.53;5095609;28;20043;-62
2021/10/24 07:24:08;;;;;;;1.92;0.70;;;;;;;6.96;63.12;99388.69;5110831;28;20028;-61
2021/10/24 07:26:34;;;;;;;0.90;0.55;;;;;;;6.92;63.51;99387.22;5111265;28;20031;-62
2021/10/24 07:29:00;;;;;;;1.38;0.43;;;;;;;6.92;63.86;99381.88;5100560;28;20039;-61
2021/10/24 07:31:26;;;;;;;1.13;0.50;;;;;;;6.94;63.52;99374.63;5103716;28;20035;-60
2021/10/24 07:33:52;;;;;;;1.85;0.55;;;;;;;7.03;62.44;99390.78;5093681;28;20036;-60
2021/10/24 07:36:18;;;;;;;0.95;0.55;;;;;;;7.08;63.08;99400.25;5093708;28;20460;-61
2021/10/24 07:38:43;;;;;;;0.93;0.50;;;;;;;7.09;61.84;99404.59;5093893;28;20035;-60
2021/10/24 07:41:09;;;;;;;0.90;0.52;;;;;;;7.15;61.88;99409.47;5075748;28;20559;-59
2021/10/24 07:43:35;;;;;;;1.55;0.60;;;;;;;7.19;62.17;99421.59;5075613;28;20067;-61
2021/10/24 07:46:00;;;;;;;1.13;0.50;;;;;;;7.21;62.00;99419.66;5096992;28;20429;-58
2021/10/24 07:48:26;;;;;;;0.98;0.43;;;;;;;7.21;61.05;99411.69;5113927;28;20472;-59
2021/10/24 07:50:51;;;;;;;0.68;0.50;;;;;;;7.18;60.88;99430.53;5095889;28;20505;-58
2021/10/24 07:53:18;;;;;;;3.20;0.70;;;;;;;7.06;61.52;99421.63;5113330;28;20031;-61
2021/10/24 07:55:44;;;;;;;1.33;0.73;;;;;;;7.00;62.32;99411.44;5114134;28;20027;-59
2021/10/24 07:58:09;;;;;;;1.63;0.90;;;;;;;7.00;62.02;99432.75;5113396;28;20093;-59
2021/10/24 08:00:35;;;;;;;2.92;0.82;;;;;;;6.94;62.69;99427.88;5113762;28;20437;-61
2021/10/24 08:03:06;;;;;;;5.07;0.80;;;;;;;6.88;62.95;99450.44;5113328;28;20023;-60
2021/10/24 08:05:31;;;;;;;1.25;0.40;;;;;;;6.86;62.56;99447.88;5113491;28;20048;-59
2021/10/24 08:08:00;;;;;;;1.85;0.40;;;;;;;7.08;62.09;99442.84;5095114;28;20082;-59
2021/10/24 08:10:26;;;;;;;0.43;0.30;;;;;;;7.22;60.96;99442.66;5113526;28;20046;-64
2021/10/24 08:12:53;;;;;;;0.50;0.30;;;;;;;7.25;61.47;99455.78;5093968;28;20051;-59
2021/10/24 08:15:19;;;;;;;0.40;0.28;;;;;;;7.22;60.69;99452.47;5112161;28;20034;-61
2021/10/24 08:17:48;;;;;;;0.85;0.20;;;;;;;7.20;60.87;99465.91;5094354;28;20100;-60
2021/10/24 08:20:15;;;;;;;0.30;0.30;;;;;;;7.18;60.85;99467.81;5094452;28;20539;-55
2021/10/24 08:22:41;;;;;;;1.65;0.20;;;;;;;6.97;61.43;99455.09;5112410;28;20073;-61
2021/10/24 08:25:07;;;;;;;0.52;0.40;;;;;;;7.07;60.29;99470.41;5112942;28;20023;-59
2021/10/24 08:27:33;;;;;;;1.30;0.30;;;;;;;7.20;60.02;99473.88;5112059;28;20556;-57
2021/10/24 08:30:07;;;;;;;0.43;0.28;;;;;;;7.40;59.07;99484.91;5094114;28;20028;-60
2021/10/24 08:32:36;;;;;;;0.85;0.50;;;;;;;7.50;58.24;99483.28;5111642;28;20039;-62
2021/10/24 08:35:06;;;;;;;0.25;0.20;;;;;;;7.52;57.51;99476.03;5094336;28;20489;-61
2021/10/24 08:37:32;;;;;;;0.85;0.20;;;;;;;7.58;57.21;99478.22;5112547;28;20024;-64
2021/10/24 08:39:57;;;;;;;1.10;0.20;;;;;;;7.47;57.77;99479.03;5112398;28;20061;-62
2021/10/24 08:42:28;;;;;;;0.68;0.30;;;;;;;7.46;57.58;99495.09;5111466;28;20028;-61
2021/10/24 08:44:58;;;;;;;0.30;0.30;;;;;;;7.42;58.20;99501.63;5112319;28;20031;-61
2021/10/24 08:47:25;;;;;;;0.40;0.40;;;;;;;7.27;57.88;99499.13;5112275;28;20036;-61
2021/10/24 08:49:51;;;;;;;0.65;0.30;;;;;;;7.11;58.52;99507.34;5112165;28;20053;-61
2021/10/24 08:52:20;;;;;;;1.15;0.35;;;;;;;7.10;58.27;99510.13;5111478;28;20532;-62
2021/10/24 08:54:45;;;;;;;0.77;0.30;;;;;;;6.93;59.09;99506.00;5112260;28;20028;-61
2021/10/24 08:57:11;;;;;;;2.05;0.38;;;;;;;6.95;58.50;99520.06;5112624;28;20032;-61
2021/10/24 08:59:38;;;;;;;2.13;0.40;;;;;;;6.88;58.69;99511.66;5093882;28;20127;-62
2021/10/24 09:02:04;;;;;;;0.65;0.40;;;;;;;7.01;58.84;99530.25;5094042;28;20039;-60
2021/10/24 09:04:30;;;;;;;0.68;0.45;;;;;;;6.98;58.61;99526.00;5109486;28;20792;-59
2021/10/24 09:07:02;;;;;;;0.75;0.40;;;;;;;7.09;59.41;99529.72;5108823;28;20102;-56
2021/10/24 09:09:33;;;;;;;0.70;0.35;;;;;;;7.16;58.59;99542.50;5101175;28;20075;-60
2021/10/24 09:12:07;;;;;;;0.47;0.40;;;;;;;7.11;59.23;99533.97;5106536;28;20073;-56
2021/10/24 09:14:43;;;;;;;0.40;0.30;;;;;;;7.16;58.94;99547.81;5112544;28;20526;-59
2021/10/24 09:17:14;;;;;;;0.98;0.50;;;;;;;7.11;57.83;99549.09;5113328;28;20081;-60
2021/10/24 09:19:42;;;;;;;2.55;0.40;;;;;;;7.19;58.53;99565.38;5112130;28;20061;-60
2021/10/24 09:22:23;;;;;;;0.75;0.40;;;;;;;7.26;57.07;99517.88;5112405;28;20023;-59
2021/10/24 09:25:00;;;;;;;0.70;0.40;;;;;;;7.39;56.68;99529.34;5107951;28;20027;-63
2021/10/24 09:27:27;;;;;;;1.05;0.47;;;;;;;7.54;55.64;99567.34;5112301;28;20039;-67
2021/10/24 09:29:52;;;;;;;0.43;0.30;;;;;;;7.31;56.07;99537.88;5110225;28;20088;-58
2021/10/24 09:32:18;;;;;;;3.42;0.40;;;;;;;7.45;55.65;99587.50;5110504;28;20103;-60
2021/10/24 09:35:00;;;;;;;1.58;0.50;;;;;;;7.22;56.22;99570.47;5112064;28;20046;-57
2021/10/24 09:37:27;;;;;;;0.85;0.40;;;;;;;7.23;56.59;99587.31;5100701;28;20036;-56
2021/10/24 09:39:53;;;;;;;0.28;0.28;;;;;;;7.11;56.05;99573.91;5107131;28;20036;-56
2021/10/24 09:42:22;;;;;;;0.93;0.50;;;;;;;7.26;56.12;99587.97;5103900;28;20038;-60
2021/10/24 09:45:05;;;;;;;0.60;0.35;;;;;;;7.30;55.89;99596.56;5112215;28;20164;-55
2021/10/24 09:47:35;;;;;;;1.67;0.50;;;;;;;7.05;55.87;99600.97;5111709;28;20059;-62
2021/10/24 09:50:02;;;;;;;0.45;0.45;;;;;;;6.88;55.85;99604.78;5108932;28;20380;-59
2021/10/24 09:52:33;;;;;;;1.23;0.65;;;;;;;6.84;55.78;99603.31;5091673;28;20039;-62
2021/10/24 09:55:00;;;;;;;1.02;0.50;;;;;;;6.79;55.53;99600.13;5087107;28;20057;-66
2021/10/24 09:57:25;;;;;;;0.63;0.60;;;;;;;6.88;56.04;99616.31;5072500;28;20042;-68
2021/10/24 09:59:53;;;;;;;1.20;0.80;;;;;;;6.92;55.24;99632.91;5089769;28;20471;-66
2021/10/24 10:02:19;;;;;;;2.25;0.60;;;;;;;6.86;55.32;99623.50;5089137;28;20426;-66
2021/10/24 10:04:45;;;;;;;1.42;0.57;;;;;;;6.82;55.55;99632.66;5072728;28;20095;-68
2021/10/24 10:07:13;;;;;;;0.70;0.50;;;;;;;6.69;56.08;99643.28;5073239;28;20020;-66
2021/10/24 10:09:41;;;;;;;0.40;0.30;;;;;;;6.64;56.90;99647.25;5072754;28;20132;-67
2021/10/24 10:12:08;;;;;;;0.68;0.40;;;;;;;6.31;57.90;99644.91;5056012;28;20075;-66
2021/10/24 10:14:36;;;;;;;2.63;0.70;;;;;;;6.22;58.49;99666.78;5056536;28;20046;-66
2021/10/24 10:17:14;;;;;;;1.63;0.90;;;;;;;6.03;59.49;99661.81;5073279;28;20034;-65
2021/10/24 10:19:43;;;;;;;1.83;1.02;;;;;;;5.75;60.91;99639.59;5056575;28;20028;-65
2021/10/24 10:22:28;;;;;;;1.10;0.65;;;;;;;6.06;61.17;99677.56;5073493;28;20035;-66
2021/10/24 10:24:55;;;;;;;2.47;0.52;;;;;;;6.21;59.86;99673.06;5091334;28;20063;-66
2021/10/24 10:27:41;;;;;;;0.82;0.40;;;;;;;6.53;58.61;99674.56;5090168;28;20038;-63
2021/10/24 10:30:15;;;;;;;1.77;0.40;;;;;;;6.52;58.83;99672.84;5072191;28;20028;-67
2021/10/24 10:32:46;;;;;;;1.88;1.20;;;;;;;6.59;58.79;99674.13;5091708;28;20028;-66
2021/10/24 10:35:20;;;;;;;0.85;0.60;;;;;;;6.63;58.17;99685.41;5073132;28;20431;-66
2021/10/24 10:38:03;;;;;;;0.70;0.70;;;;;;;6.55;58.36;99686.78;5091039;28;20145;-66
2021/10/24 10:40:38;;;;;;;1.13;0.77;;;;;;;6.34;58.03;99662.47;5091118;28;20498;-65
2021/10/24 10:43:21;;;;;;;1.70;0.70;;;;;;;6.29;58.27;99660.09;5091141;28;20091;-65
2021/10/24 10:45:58;;;;;;;1.67;0.70;;;;;;;6.52;58.80;99694.97;5072589;28;20173;-67
2021/10/24 10:48:28;;;;;;;1.00;0.80;;;;;;;6.56;58.30;99692.97;5090637;28;20051;-66
2021/10/24 10:50:57;;;;;;;1.10;0.68;;;;;;;6.62;58.30;99700.53;5091204;28;20422;-66
2021/10/24 10:53:32;;;;;;;1.48;0.80;;;;;;;6.74;58.16;99701.53;5090822;28;20107;-66
2021/10/24 10:56:01;;;;;;;1.42;0.80;;;;;;;6.50;56.60;99677.38;5090561;28;20111;-66
2021/10/24 10:58:28;;;;;;;1.05;0.80;;;;;;;6.70;56.52;99706.19;5055690;28;20028;-66
2021/10/24 11:00:55;;;;;;;2.25;0.80;;;;;;;6.74;56.41;99712.16;5091003;28;20032;-66
2021/10/24 11:03:46;;;;;;;0.50;0.50;;;;;;;6.92;57.13;99722.53;5091062;28;20023;-66
2021/10/24 11:06:36;;;;;;;1.63;0.73;;;;;;;6.96;56.10;99724.88;5090893;28;20388;-66
2021/10/24 11:09:09;;;;;;;1.15;0.70;;;;;;;6.67;56.14;99717.03;5090673;28;20032;-66
2021/10/24 11:11:38;;;;;;;2.83;0.93;;;;;;;6.60;56.76;99737.03;5090611;28;20048;-66
2021/10/24 11:14:15;;;;;;;1.65;0.75;;;;;;;6.47;57.12;99752.94;5055776;28;20040;-64
2021/10/24 11:16:42;;;;;;;0.70;0.50;;;;;;;6.19;58.66;99754.72;5090679;28;20063;-66
2021/10/24 11:19:43;;;;;;;1.58;0.60;;;;;;;6.15;59.05;99753.19;5072374;28;20032;-66
2021/10/24 11:22:19;;;;;;;1.17;0.60;;;;;;;5.96;59.81;99762.31;4992506;28;20084;-66
2021/10/24 11:24:50;;;;;;;2.92;0.90;;;;;;;5.92;61.12;99762.56;5062057;28;20040;-66
2021/10/24 11:27:27;;;;;;;1.83;1.10;;;;;;;5.95;60.58;99775.66;5072149;28;20388;-66
2021/10/24 11:29:59;;;;;;;1.20;0.85;;;;;;;5.95;59.33;99783.63;5090358;28;20094;-65
2021/10/24 11:32:35;;;;;;;1.95;0.98;;;;;;;5.87;58.67;99784.97;5089843;28;20718;-66
2021/10/24 11:35:01;;;;;;;1.55;0.90;;;;;;;5.65;58.61;99793.38;5089923;28;20024;-65
2021/10/24 11:37:35;;;;;;;1.67;0.50;;;;;;;5.38;59.14;99772.88;5091062;28;20047;-65
2021/10/24 11:40:07;;;;;;;0.70;0.50;;;;;;;5.16;58.67;99757.38;5104652;28;20039;-65
2021/10/24 11:42:34;;;;;;;1.65;0.40;;;;;;;5.39;58.85;99805.59;5087955;28;20073;-69